
Distance (Route):
Temperature : -53.0°C
Humidity : 3.8%
Pressure : 0hPa| Receiver | Frames | First received | Last received |
|---|---|---|---|
| DJ2DS-15 | 77 | 2026-09-03 00:46:07 | 2026-09-03 01:08:19 |
| Receiver | Date | Latitude | Longitude | Direction | Speed | Altitude | Climb | Temperature | Humidity | Pressure | Voltage | Killtimer | Uptime | BKT | XDATA |
|---|---|---|---|---|---|---|---|---|---|---|---|---|---|---|---|
| DJ2DS-15 | 2026-09-03 01:08:19 | 55.03436 | 0.12551 | 79° | 60km/h | 16322m | -8.3m/s | -53.0°C | 3.8% | 0hPa | 2.5V | 00:00:00 | 02:18:07 | 00:00:00 | |
| DJ2DS-15 | 2026-09-03 01:07:59 | 55.03423 | 0.12018 | 78° | 69km/h | 16497m | -8.5m/s | -53.0°C | 3.7% | 0hPa | 2.5V | 00:00:00 | 02:17:47 | 00:00:00 | |
| DJ2DS-15 | 2026-09-03 01:07:39 | 55.03392 | 0.11417 | 87° | 73km/h | 16672m | -8.9m/s | -53.9°C | 4.2% | 0hPa | 2.5V | 00:00:00 | 02:17:27 | 00:00:00 | |
| DJ2DS-15 | 2026-09-03 01:07:19 | 55.03419 | 0.10793 | 87° | 71km/h | 16853m | -9.2m/s | -52.3°C | 3.7% | 0hPa | 2.5V | 00:00:00 | 02:17:07 | 00:00:00 | |
| DJ2DS-15 | 2026-09-03 01:07:16 | 55.03418 | 0.10684 | 91° | 84km/h | 16880m | -9.4m/s | -51.8°C | 0.8% | -1.0hPa | 2.5V | 00:00:00 | 00:00:00 | 00:00:00 | |
| DJ2DS-15 | 2026-09-03 01:06:59 | 55.03468 | 0.10180 | 85° | 62km/h | 17038m | -9.3m/s | -52.2°C | 3.6% | 0hPa | 2.5V | 00:00:00 | 02:16:47 | 00:00:00 | |
| DJ2DS-15 | 2026-09-03 01:06:40 | 55.03523 | 0.09679 | 81° | 53km/h | 17215m | -9.4m/s | -51.7°C | 0.8% | -1.0hPa | 2.5V | 00:00:00 | 00:00:00 | 00:00:00 | |
| DJ2DS-15 | 2026-09-03 01:06:19 | 55.03541 | 0.09110 | 81° | 58km/h | 17411m | -9.4m/s | -52.3°C | 3.6% | 0hPa | 2.5V | 00:00:00 | 02:16:07 | 00:00:00 | |
| DJ2DS-15 | 2026-09-03 01:05:59 | 55.03585 | 0.08621 | 89° | 46km/h | 17609m | -10.1m/s | -52.4°C | 3.6% | 0hPa | 2.5V | 00:00:00 | 02:15:47 | 00:00:00 | |
| DJ2DS-15 | 2026-09-03 01:05:39 | 55.03623 | 0.08231 | 76° | 57km/h | 17809m | -10.8m/s | -52.6°C | 3.8% | 0hPa | 2.5V | 00:00:00 | 02:15:27 | 00:00:00 | |
| DJ2DS-15 | 2026-09-03 01:05:28 | 55.03633 | 0.07985 | 82° | 42km/h | 17919m | -10.1m/s | -51.9°C | 0.7% | -1.0hPa | 2.6V | 00:00:00 | 00:00:00 | 00:00:00 | |
| DJ2DS-15 | 2026-09-03 01:05:19 | 55.03607 | 0.07738 | 91° | 53km/h | 18011m | -10.4m/s | -51.2°C | 3.5% | 0hPa | 2.6V | 00:00:00 | 02:15:07 | 00:00:00 | |
| DJ2DS-15 | 2026-09-03 01:04:52 | 55.03657 | 0.07140 | 118° | 31km/h | 18287m | -10.7m/s | -50.8°C | 0.7% | -1.0hPa | 2.6V | 00:00:00 | 00:00:00 | 00:00:00 | |
| DJ2DS-15 | 2026-09-03 01:04:39 | 55.03631 | 0.06981 | 74° | 44km/h | 18428m | -10.5m/s | -51.1°C | 3.4% | 0hPa | 2.6V | 00:00:00 | 02:14:27 | 00:00:00 | |
| DJ2DS-15 | 2026-09-03 01:04:19 | 55.03606 | 0.06610 | 102° | 38km/h | 18635m | -10.5m/s | -51.1°C | 3.3% | 0hPa | 2.6V | 00:00:00 | 02:14:07 | 00:00:00 | |
| DJ2DS-15 | 2026-09-03 01:04:16 | 55.03621 | 0.06539 | 114° | 33km/h | 18678m | -11.2m/s | -51.3°C | 0.7% | -1.0hPa | 2.6V | 00:00:00 | 00:00:00 | 00:00:00 | |
| DJ2DS-15 | 2026-09-03 01:03:59 | 55.03584 | 0.06301 | 93° | 40km/h | 18856m | -11.2m/s | -51.9°C | 3.5% | 0hPa | 2.6V | 00:00:00 | 02:13:47 | 00:00:00 | |
| DJ2DS-15 | 2026-09-03 01:03:39 | 55.03585 | 0.05965 | 94° | 46km/h | 19077m | -11.7m/s | -52.4°C | 3.6% | 0hPa | 2.6V | 08:20:00 | 02:13:27 | 00:00:00 | |
| DJ2DS-15 | 2026-09-03 01:03:19 | 55.03616 | 0.05574 | 102° | 40km/h | 19335m | -13.3m/s | -52.6°C | 3.7% | 0hPa | 2.6V | 00:00:00 | 02:13:07 | 00:00:00 | |
| DJ2DS-15 | 2026-09-03 01:02:59 | 55.03619 | 0.05218 | 87° | 40km/h | 19597m | -12.9m/s | -52.3°C | 3.8% | 0hPa | 2.6V | 00:00:00 | 02:12:47 | 00:00:00 | |
| DJ2DS-15 | 2026-09-03 01:02:39 | 55.03610 | 0.04876 | 77° | 46km/h | 19863m | -13.5m/s | -51.9°C | 3.5% | 0hPa | 2.6V | 00:00:00 | 02:12:27 | 00:00:00 | |
| DJ2DS-15 | 2026-09-03 01:02:19 | 55.03547 | 0.04493 | 84° | 38km/h | 20129m | -13.4m/s | -52.2°C | 3.6% | 0hPa | 2.5V | 00:00:00 | 02:12:07 | 00:00:00 | |
| DJ2DS-15 | 2026-09-03 01:01:52 | 55.03546 | 0.04051 | 76° | 27km/h | 20510m | -13.9m/s | -53.0°C | 0.8% | -1.0hPa | 2.5V | 00:00:00 | 00:00:00 | 00:00:00 | |
| DJ2DS-15 | 2026-09-03 01:01:39 | 55.03524 | 0.03850 | 85° | 38km/h | 20676m | -14.0m/s | -52.4°C | 3.7% | 0hPa | 2.5V | 00:00:00 | 02:11:27 | 00:00:00 | |
| DJ2DS-15 | 2026-09-03 01:01:19 | 55.03524 | 0.03508 | 89° | 46km/h | 20963m | -14.6m/s | -52.3°C | 3.7% | 0hPa | 2.5V | 00:00:00 | 02:11:07 | 00:00:00 | |
| DJ2DS-15 | 2026-09-03 01:00:59 | 55.03558 | 0.03112 | 111° | 40km/h | 21252m | -14.2m/s | -51.5°C | 3.5% | 0hPa | 2.5V | 00:00:00 | 02:10:47 | 00:00:00 | |
| DJ2DS-15 | 2026-09-03 01:00:39 | 55.03650 | 0.02806 | 135° | 27km/h | 21537m | -13.5m/s | -51.4°C | 3.5% | 0hPa | 2.5V | 08:23:00 | 02:10:27 | 00:00:00 | |
| DJ2DS-15 | 2026-09-03 01:00:19 | 55.03684 | 0.02576 | 104° | 29km/h | 21834m | -15.7m/s | -51.9°C | 3.7% | 0hPa | 2.6V | 00:00:00 | 02:10:07 | 00:00:00 | |
| DJ2DS-15 | 2026-09-03 00:59:38 | 55.03757 | 0.02144 | 98° | 20km/h | 22492m | -16.4m/s | -50.5°C | 3.3% | 0hPa | 2.6V | 00:00:00 | 02:09:26 | 00:00:00 | |
| DJ2DS-15 | 2026-09-03 00:59:18 | 55.03751 | 0.01983 | 105° | 13km/h | 22820m | -16.8m/s | -51.2°C | 3.5% | 0hPa | 2.6V | 00:00:00 | 02:09:06 | 00:00:00 | |
| DJ2DS-15 | 2026-09-03 00:58:52 | 55.03761 | 0.01867 | 60° | 26km/h | 23248m | -15.2m/s | -50.8°C | 0.6% | -1.0hPa | 2.6V | 00:00:00 | 00:00:00 | 00:00:00 | |
| DJ2DS-15 | 2026-09-03 00:58:38 | 55.03824 | 0.01782 | 212° | 24km/h | 23435m | -14.4m/s | -51.0°C | 3.5% | 0hPa | 2.6V | 00:00:00 | 02:08:26 | 00:00:00 | |
| DJ2DS-15 | 2026-09-03 00:58:18 | 55.03889 | 0.01658 | 31° | 24km/h | 23730m | -15.5m/s | -51.3°C | 3.6% | 0hPa | 2.5V | 00:00:00 | 02:08:06 | 00:00:00 | |
| DJ2DS-15 | 2026-09-03 00:57:58 | 55.03955 | 0.01574 | 69° | 22km/h | 24032m | -15.1m/s | -50.7°C | 3.4% | 0hPa | 2.5V | 00:00:00 | 02:07:46 | 00:00:00 | |
| DJ2DS-15 | 2026-09-03 00:57:38 | 55.03992 | 0.01513 | 88° | 15km/h | 24332m | -14.9m/s | -50.9°C | 3.4% | 0hPa | 2.5V | 08:26:00 | 02:07:26 | 00:00:00 | |
| DJ2DS-15 | 2026-09-03 00:57:18 | 55.04016 | 0.01430 | 149° | 15km/h | 24636m | -15.5m/s | -51.2°C | 3.6% | 0hPa | 2.5V | 00:00:00 | 02:07:06 | 00:00:00 | |
| DJ2DS-15 | 2026-09-03 00:57:03 | 55.04000 | 0.01381 | 86° | 20km/h | 24865m | -16.6m/s | -50.7°C | 0.6% | -1.0hPa | 2.5V | 00:00:00 | 00:00:00 | 00:00:00 | |
| DJ2DS-15 | 2026-09-03 00:56:57 | 55.04001 | 0.01332 | 104° | 16km/h | 24958m | -16.6m/s | -50.4°C | 3.5% | 0hPa | 2.5V | 00:00:00 | 02:06:45 | 00:00:00 | |
| DJ2DS-15 | 2026-09-03 00:56:37 | 55.04067 | 0.01280 | 118° | 11km/h | 25278m | -16.6m/s | -49.5°C | 3.2% | 0hPa | 2.5V | 00:00:00 | 02:06:25 | 00:00:00 | |
| DJ2DS-15 | 2026-09-03 00:56:27 | 55.04064 | 0.01250 | 81° | 16km/h | 25455m | -21.1m/s | -49.4°C | 0.6% | -1.0hPa | 2.5V | 00:00:00 | 00:00:00 | 00:00:00 | |
| DJ2DS-15 | 2026-09-03 00:56:17 | 55.04060 | 0.01199 | 333° | 9km/h | 25639m | -18.3m/s | -49.7°C | 3.3% | 0hPa | 2.5V | 00:00:00 | 02:06:05 | 00:00:00 | |
| DJ2DS-15 | 2026-09-03 00:55:57 | 55.04065 | 0.01226 | 35° | 20km/h | 26000m | -16.6m/s | -49.8°C | 3.4% | 0hPa | 2.5V | 00:00:00 | 02:05:45 | 00:00:00 | |
| DJ2DS-15 | 2026-09-03 00:55:37 | 55.04038 | 0.01117 | 76° | 22km/h | 26371m | -19.0m/s | -49.0°C | 3.2% | 0hPa | 2.5V | 00:00:00 | 02:05:25 | 00:00:00 | |
| DJ2DS-15 | 2026-09-03 00:55:17 | 55.04016 | 0.01058 | 111° | 13km/h | 26758m | -21.6m/s | -49.4°C | 3.5% | 0hPa | 2.6V | 00:00:00 | 02:05:05 | 00:00:00 | |
| DJ2DS-15 | 2026-09-03 00:55:15 | 55.04028 | 0.01025 | 135° | 27km/h | 26821m | -20.9m/s | -49.2°C | 0.6% | -1.0hPa | 2.6V | 00:00:00 | 00:00:00 | 00:00:00 | |
| DJ2DS-15 | 2026-09-03 00:54:57 | 55.04048 | 0.00992 | 68° | 20km/h | 27221m | -22.7m/s | -47.8°C | 3.1% | 0hPa | 2.6V | 00:00:00 | 02:04:45 | 00:00:00 | |
| DJ2DS-15 | 2026-09-03 00:54:39 | 55.04043 | 0.00847 | 133° | 15km/h | 27706m | -37.6m/s | -46.0°C | 0.5% | -1.0hPa | 2.6V | 00:00:00 | 00:00:00 | 00:00:00 | |
| DJ2DS-15 | 2026-09-03 00:54:37 | 55.04046 | 0.00842 | 135° | 11km/h | 27744m | -36.8m/s | -45.6°C | 2.7% | 0hPa | 2.6V | 00:00:00 | 02:04:25 | 08:30:00 | |
| DJ2DS-15 | 2026-09-03 00:54:17 | 55.04053 | 0.00757 | 115° | 26km/h | 28355m | -22.7m/s | -46.7°C | 3.0% | 0hPa | 2.5V | 00:00:00 | 02:04:05 | 00:00:00 | |
| DJ2DS-15 | 2026-09-03 00:54:03 | 55.04130 | 0.00670 | 142° | 29km/h | 28707m | -22.6m/s | -45.2°C | 0.5% | -1.0hPa | 2.5V | 00:00:00 | 00:00:00 | 00:00:00 | |
| DJ2DS-15 | 2026-09-03 00:53:57 | 55.04166 | 0.00662 | 207° | 20km/h | 28823m | -24.0m/s | -45.1°C | 2.7% | 0hPa | 2.5V | 00:00:00 | 02:03:45 | 00:00:00 | |
| DJ2DS-15 | 2026-09-03 00:53:37 | 55.04232 | 0.00777 | 205° | 20km/h | 28945m | 4.6m/s | -44.8°C | 2.6% | 0hPa | 2.5V | 00:00:00 | 02:03:25 | 00:00:00 | |
| DJ2DS-15 | 2026-09-03 00:53:27 | 55.04281 | 0.00786 | 168° | 27km/h | 28883m | 5.2m/s | -45.3°C | 0.5% | -1.0hPa | 2.5V | 00:00:00 | 00:00:00 | 00:00:00 | |
| DJ2DS-15 | 2026-09-03 00:53:17 | 55.04331 | 0.00769 | 174° | 29km/h | 28834m | 4.8m/s | -45.6°C | 2.8% | 0hPa | 2.5V | 00:00:00 | 02:03:05 | 00:00:00 | |
| DJ2DS-15 | 2026-09-03 00:52:57 | 55.04463 | 0.00696 | 148° | 26km/h | 28720m | 6.1m/s | -45.4°C | 2.7% | 0hPa | 2.5V | 00:00:00 | 02:02:45 | 00:00:00 | |
| DJ2DS-15 | 2026-09-03 00:52:37 | 55.04577 | 0.00616 | 139° | 26km/h | 28609m | 4.8m/s | -46.4°C | 2.8% | 0hPa | 2.5V | 00:00:00 | 02:02:25 | 00:00:00 | |
| DJ2DS-15 | 2026-09-03 00:52:17 | 55.04677 | 0.00470 | 126° | 20km/h | 28494m | 6.4m/s | -47.2°C | 3.0% | 0hPa | 2.5V | 00:00:00 | 02:02:05 | 00:00:00 | |
| DJ2DS-15 | 2026-09-03 00:51:56 | 55.04727 | 0.00312 | 79° | 13km/h | 28374m | 6.2m/s | -47.0°C | 3.0% | 0hPa | 2.5V | 00:00:00 | 02:01:44 | 00:00:00 | |
| DJ2DS-15 | 2026-09-03 00:51:36 | 55.04729 | 0.00218 | 60° | 9km/h | 28263m | 5.4m/s | -46.8°C | 3.0% | 0hPa | 2.5V | 00:00:00 | 02:01:24 | 08:30:00 | |
| DJ2DS-15 | 2026-09-03 00:51:16 | 55.04730 | 0.00155 | 148° | 9km/h | 28151m | 5.4m/s | -46.3°C | 2.9% | 0hPa | 2.5V | 00:00:00 | 02:01:04 | 00:00:00 | |
| DJ2DS-15 | 2026-09-03 00:50:56 | 55.04734 | 0.00095 | 88° | 11km/h | 28042m | 6.2m/s | -46.0°C | 2.8% | 0hPa | 2.5V | 00:00:00 | 02:00:44 | 00:00:00 | |
| DJ2DS-15 | 2026-09-03 00:50:36 | 55.04745 | 0.00000 | 150° | 13km/h | 27934m | 4.7m/s | -46.3°C | 2.9% | 0hPa | 2.5V | 00:00:00 | 02:00:24 | 00:00:00 | |
| DJ2DS-15 | 2026-09-03 00:50:27 | 55.04763 | -0.00019 | 162° | 7km/h | 27882m | 4.5m/s | -46.4°C | 0.5% | -1.0hPa | 2.5V | 00:00:00 | 00:00:00 | 00:00:00 | |
| DJ2DS-15 | 2026-09-03 00:50:16 | 55.04803 | -0.00054 | 146° | 22km/h | 27826m | 4.9m/s | -46.5°C | 2.8% | 0hPa | 2.5V | 00:00:00 | 02:00:04 | 00:00:00 | |
| DJ2DS-15 | 2026-09-03 00:49:50 | 55.04899 | -0.00246 | 143° | 16km/h | 27687m | 4.4m/s | -47.4°C | 0.5% | -1.0hPa | 2.5V | 00:00:00 | 00:00:00 | 00:00:00 | |
| DJ2DS-15 | 2026-09-03 00:49:36 | 55.04925 | -0.00361 | 119° | 13km/h | 27612m | 6.4m/s | -47.4°C | 2.9% | 0hPa | 2.5V | 00:00:00 | 01:59:24 | 00:00:00 | |
| DJ2DS-15 | 2026-09-03 00:49:16 | 55.04940 | -0.00470 | 118° | 13km/h | 27501m | 6.2m/s | -48.4°C | 3.1% | 0hPa | 2.5V | 00:00:00 | 01:59:04 | 00:00:00 | |
| DJ2DS-15 | 2026-09-03 00:49:14 | 55.04944 | -0.00479 | 130° | 11km/h | 27491m | 4.5m/s | -48.6°C | 0.6% | -1.0hPa | 2.5V | 00:00:00 | 00:00:00 | 00:00:00 | |
| DJ2DS-15 | 2026-09-03 00:48:56 | 55.04969 | -0.00568 | 94° | 20km/h | 27393m | 4.1m/s | -48.7°C | 3.3% | 0hPa | 2.5V | 00:00:00 | 01:58:44 | 00:00:00 | |
| DJ2DS-15 | 2026-09-03 00:48:36 | 55.05028 | -0.00700 | 128° | 22km/h | 27283m | 6.5m/s | -48.1°C | 3.1% | 0hPa | 2.5V | 00:00:00 | 01:58:24 | 08:30:00 | |
| DJ2DS-15 | 2026-09-03 00:48:16 | 55.05081 | -0.00853 | 124° | 20km/h | 27171m | 4.8m/s | -48.2°C | 3.1% | 0hPa | 2.5V | 00:00:00 | 01:58:04 | 00:00:00 | |
| DJ2DS-15 | 2026-09-03 00:47:56 | 55.05098 | -0.01025 | 91° | 13km/h | 27060m | 5.4m/s | -48.4°C | 3.2% | 0hPa | 2.5V | 00:00:00 | 01:57:44 | 00:00:00 | |
| DJ2DS-15 | 2026-09-03 00:47:36 | 55.05108 | -0.01123 | 155° | 11km/h | 26946m | 5.0m/s | -48.5°C | 3.1% | 0hPa | 2.5V | 00:00:00 | 01:57:24 | 00:00:00 | |
| DJ2DS-15 | 2026-09-03 00:47:16 | 55.05114 | -0.01208 | 77° | 20km/h | 26834m | 6.3m/s | -49.0°C | 3.2% | 0hPa | 2.5V | 00:00:00 | 01:57:04 | 00:00:00 | |
| DJ2DS-15 | 2026-09-03 00:46:56 | 55.05106 | -0.01377 | 74° | 15km/h | 26718m | 6.6m/s | -49.2°C | 3.3% | 0hPa | 2.5V | 00:00:00 | 01:56:44 | 00:00:00 | |
| DJ2DS-15 | 2026-09-03 00:46:29 | 55.05037 | -0.01515 | 47° | 7km/h | 26566m | 6.2m/s | -48.6°C | 3.2% | 0hPa | 2.5V | 00:00:00 | 01:56:17 | 00:00:00 | |
| DJ2DS-15 | 2026-09-03 00:46:07 | 55.05006 | -0.01547 | 134° | 5km/h | 26438m | 6.6m/s | 0°C | 0% | 0hPa | 0V | 00:00:00 | 01:55:55 | 00:00:00 |